Aviation Digital Data Service (ADDS)

Output produced by TAFs form (0331 UTC 28 June 2017)
found at http://www.aviationweather.gov/adds/tafs/
 
KTUS 272326Z 2800/2824 28012G20KT P6SM SKC 
     FM280300 27006KT P6SM SKC 
     FM280800 15006KT P6SM SKC 
     FM281900 27014G22KT P6SM SKC